createdAt,value
2019-05-14T00:01:42.218Z,5.40
2019-05-14T00:04:14.549Z,5.40
2019-05-14T00:06:47.110Z,5.37
2019-05-14T00:09:21.508Z,6.57
2019-05-14T00:11:54.018Z,12.53
2019-05-14T00:14:38.769Z,7.13
2019-05-14T00:17:01.745Z,7.10
2019-05-14T00:19:36.015Z,5.33
2019-05-14T00:22:08.665Z,5.10
2019-05-14T00:24:41.749Z,4.53
2019-05-14T00:27:14.895Z,6.43
2019-05-14T00:29:47.645Z,5.23
2019-05-14T00:32:21.652Z,5.43
2019-05-14T00:34:54.620Z,5.30
2019-05-14T00:37:27.150Z,4.77
2019-05-14T00:40:01.328Z,4.60
2019-05-14T00:42:34.185Z,4.53
2019-05-14T00:45:08.372Z,4.50
2019-05-14T00:47:41.761Z,5.20
2019-05-14T00:50:15.070Z,4.80
2019-05-14T00:52:47.815Z,5.67
2019-05-14T00:55:22.375Z,5.03
2019-05-14T00:57:54.940Z,4.17
2019-05-14T01:00:31.169Z,4.87
2019-05-14T01:03:03.280Z,4.23
2019-05-14T01:05:36.065Z,4.00
2019-05-14T01:08:08.827Z,4.70
2019-05-14T01:10:41.883Z,4.27
2019-05-14T01:13:16.795Z,4.30
2019-05-14T01:15:51.893Z,4.07
2019-05-14T01:18:23.685Z,3.60
2019-05-14T01:20:57.425Z,4.50
2019-05-14T01:23:32.064Z,4.30
2019-05-14T01:26:04.670Z,4.33
2019-05-14T01:28:37.481Z,4.23
2019-05-14T01:31:11.399Z,4.17
2019-05-14T01:33:44.641Z,3.87
2019-05-14T01:36:17.196Z,3.77
2019-05-14T01:38:51.318Z,4.87
2019-05-14T01:41:24.161Z,5.70
2019-05-14T01:43:57.220Z,5.90
2019-05-14T01:46:31.632Z,5.80
2019-05-14T01:49:05.086Z,5.43
2019-05-14T01:51:38.001Z,6.17
2019-05-14T01:54:11.947Z,5.17
2019-05-14T01:56:44.986Z,4.93
2019-05-14T01:59:17.771Z,5.37
2019-05-14T02:01:51.778Z,5.17
2019-05-14T02:04:24.670Z,6.17
2019-05-14T02:06:57.612Z,4.80
2019-05-14T02:09:31.093Z,4.80
2019-05-14T02:12:03.746Z,4.67
2019-05-14T02:14:36.436Z,5.70
2019-05-14T02:17:09.030Z,5.03
2019-05-14T02:19:42.746Z,4.93
2019-05-14T02:22:15.706Z,4.70
2019-05-14T02:24:48.385Z,5.63
2019-05-14T02:27:21.483Z,5.53
2019-05-14T02:29:54.161Z,4.97
2019-05-14T02:32:29.698Z,4.53
2019-05-14T02:35:01.113Z,4.47
2019-05-14T02:37:34.725Z,4.40
2019-05-14T02:40:10.168Z,4.73
2019-05-14T02:42:43.116Z,5.50
2019-05-14T02:45:19.522Z,5.37
2019-05-14T02:47:50.648Z,4.67
2019-05-14T02:50:23.425Z,5.10
2019-05-14T02:52:59.609Z,4.77
2019-05-14T02:55:30.712Z,4.80
2019-05-14T02:58:03.742Z,4.87
2019-05-14T03:00:40.436Z,5.27
2019-05-14T03:03:10.846Z,4.77
2019-05-14T03:05:43.365Z,5.17
2019-05-14T03:08:19.486Z,5.10
2019-05-14T03:10:50.845Z,6.97
2019-05-14T03:13:25.347Z,7.17
2019-05-14T03:15:59.416Z,5.50
2019-05-14T03:18:32.380Z,5.37
2019-05-14T03:21:05.001Z,6.40
2019-05-14T03:23:39.392Z,5.57
2019-05-14T03:26:12.103Z,4.83
2019-05-14T03:28:44.867Z,5.63
2019-05-14T03:31:22.343Z,5.23
2019-05-14T03:33:53.275Z,4.87
2019-05-14T03:36:32.399Z,4.87
2019-05-14T03:39:00.531Z,4.40
2019-05-14T03:41:33.501Z,6.53
2019-05-14T03:44:09.609Z,5.50
2019-05-14T03:46:49.473Z,4.90
2019-05-14T03:49:15.115Z,4.77
2019-05-14T03:51:49.757Z,4.60
2019-05-14T03:54:22.629Z,4.80
2019-05-14T03:56:55.333Z,4.80
2019-05-14T03:59:29.161Z,5.07
2019-05-14T04:02:02.074Z,5.13
2019-05-14T04:04:35.085Z,5.57
2019-05-14T04:07:10.248Z,5.47
2019-05-14T04:09:44.646Z,5.40
2019-05-14T04:12:19.198Z,5.60
2019-05-14T04:14:55.128Z,5.20
2019-05-14T04:17:36.736Z,6.90
2019-05-14T04:20:04.310Z,5.23
2019-05-14T04:22:39.257Z,5.10
2019-05-14T04:25:13.702Z,5.10
2019-05-14T04:27:49.466Z,5.03
2019-05-14T04:30:24.302Z,4.90
2019-05-14T04:32:59.577Z,5.77
2019-05-14T04:35:32.497Z,6.10
2019-05-14T04:38:05.337Z,5.70
2019-05-14T04:40:40.019Z,5.63
2019-05-14T04:43:12.660Z,5.67
2019-05-14T04:45:45.607Z,5.47
2019-05-14T04:48:31.188Z,5.40
2019-05-14T04:50:53.332Z,5.13
2019-05-14T04:53:25.890Z,4.70
2019-05-14T04:56:00.139Z,4.90
2019-05-14T04:58:33.186Z,4.73
2019-05-14T05:01:09.558Z,4.27
2019-05-14T05:03:40.476Z,4.80
2019-05-14T05:06:13.386Z,5.17
2019-05-14T05:08:49.435Z,4.87
2019-05-14T05:11:21.616Z,5.10
2019-05-14T05:13:54.806Z,5.17
2019-05-14T05:16:29.570Z,5.33
2019-05-14T05:19:01.811Z,5.03
2019-05-14T05:21:34.237Z,4.83
2019-05-14T05:24:09.022Z,6.00
2019-05-14T05:26:41.215Z,5.70
2019-05-14T05:29:13.850Z,5.10
2019-05-14T05:31:48.793Z,4.90
2019-05-14T05:34:21.085Z,4.57
2019-05-14T05:36:53.711Z,4.30
2019-05-14T05:39:28.207Z,4.70
2019-05-14T05:42:00.540Z,4.83
2019-05-14T05:44:34.323Z,4.53
2019-05-14T05:47:09.235Z,5.07
2019-05-14T05:49:41.419Z,4.83
2019-05-14T05:52:14.166Z,4.80
2019-05-14T05:54:49.051Z,5.47
2019-05-14T05:57:21.546Z,4.87
2019-05-14T05:59:54.100Z,4.67
2019-05-14T06:02:28.941Z,4.40
2019-05-14T06:05:01.080Z,4.10
2019-05-14T06:07:34.135Z,3.90
2019-05-14T06:10:09.086Z,5.47
2019-05-14T06:12:41.791Z,4.80
2019-05-14T06:15:14.533Z,4.10
2019-05-14T06:17:49.208Z,5.13
2019-05-14T06:20:21.680Z,4.80
2019-05-14T06:22:54.337Z,5.03
2019-05-14T06:25:30.875Z,5.37
2019-05-14T06:28:01.365Z,5.17
2019-05-14T06:30:39.849Z,5.63
2019-05-14T06:33:13.695Z,4.17
2019-05-14T06:35:48.602Z,5.07
2019-05-14T06:38:21.345Z,4.83
2019-05-14T06:40:53.947Z,5.13
2019-05-14T06:43:28.727Z,4.87
2019-05-14T06:46:01.270Z,5.33
2019-05-14T06:48:34.910Z,7.57
2019-05-14T06:51:08.863Z,4.97
2019-05-14T06:53:41.985Z,5.20
2019-05-14T06:56:17.888Z,4.47
2019-05-14T06:58:49.418Z,4.83
2019-05-14T07:01:21.951Z,4.33
2019-05-14T07:03:54.730Z,5.03
2019-05-14T07:06:29.103Z,5.77
2019-05-14T07:09:01.071Z,5.47
2019-05-14T07:11:34.471Z,5.43
2019-05-14T07:14:11.201Z,4.87
2019-05-14T07:16:41.021Z,4.20
2019-05-14T07:19:15.787Z,4.83
2019-05-14T07:21:49.141Z,5.40
2019-05-14T07:24:22.950Z,4.57
2019-05-14T07:26:58.345Z,4.60
2019-05-14T07:29:29.536Z,4.63
2019-05-14T07:32:02.071Z,4.73
2019-05-14T07:34:34.540Z,5.10
2019-05-14T07:37:09.359Z,4.70
2019-05-14T07:39:41.010Z,4.20
2019-05-14T07:42:13.535Z,3.80
2019-05-14T07:44:48.310Z,4.07
2019-05-14T07:47:19.890Z,3.67
2019-05-14T07:49:52.573Z,4.17
2019-05-14T07:52:24.932Z,4.03
2019-05-14T07:54:58.714Z,4.30
2019-05-14T07:57:31.231Z,4.60
2019-05-14T08:00:05.233Z,4.70
2019-05-14T08:02:38.073Z,4.27
2019-05-14T08:05:10.911Z,4.57
2019-05-14T08:07:43.270Z,3.90
2019-05-14T08:10:19.030Z,3.57
2019-05-14T08:12:51.391Z,3.90
2019-05-14T08:15:23.851Z,3.90
2019-05-14T08:17:58.582Z,4.27
2019-05-14T08:20:31.035Z,3.30
2019-05-14T08:23:04.878Z,2.80
2019-05-14T08:25:39.022Z,2.60
2019-05-14T08:28:11.653Z,2.60
2019-05-14T08:30:44.530Z,2.73
2019-05-14T08:33:18.601Z,3.70
2019-05-14T08:35:51.091Z,3.53
2019-05-14T08:38:23.712Z,3.70
2019-05-14T08:40:58.734Z,3.53
2019-05-14T08:43:30.371Z,3.83
2019-05-14T08:46:02.892Z,4.23
2019-05-14T08:48:35.352Z,4.43
2019-05-14T08:51:09.120Z,4.37
2019-05-14T08:53:42.870Z,4.63
2019-05-14T08:56:18.895Z,5.40
2019-05-14T08:58:50.551Z,4.30
2019-05-14T09:01:25.512Z,4.03
2019-05-14T09:03:59.538Z,4.53
2019-05-14T09:06:31.991Z,4.90
2019-05-14T09:09:06.091Z,4.30
2019-05-14T09:11:44.452Z,4.10
2019-05-14T09:14:12.332Z,3.60
2019-05-14T09:16:49.199Z,3.40
2019-05-14T09:19:19.401Z,3.37
2019-05-14T09:21:52.894Z,3.67
2019-05-14T09:24:25.232Z,3.20
2019-05-14T09:26:59.240Z,3.70
2019-05-14T09:29:31.931Z,2.90
2019-05-14T09:32:04.532Z,2.87
2019-05-14T09:34:39.208Z,4.10
2019-05-14T09:37:11.191Z,3.27
2019-05-14T09:39:43.731Z,2.93
2019-05-14T09:42:19.217Z,2.23
2019-05-14T09:44:50.271Z,3.10
2019-05-14T09:47:22.750Z,2.13
2019-05-14T09:49:55.411Z,2.27
2019-05-14T09:52:29.279Z,3.30
2019-05-14T09:55:01.871Z,2.47
2019-05-14T09:57:34.516Z,1.50
2019-05-14T10:00:14.307Z,1.83
2019-05-14T10:02:45.041Z,2.30
2019-05-14T10:05:19.471Z,2.13
2019-05-14T10:07:51.631Z,1.80
2019-05-14T10:10:24.112Z,2.17
2019-05-14T10:12:58.170Z,1.80
2019-05-14T10:15:30.771Z,1.50
2019-05-14T10:18:03.171Z,2.03
2019-05-14T10:20:44.447Z,1.97
2019-05-14T10:23:09.853Z,1.67
2019-05-14T10:25:46.731Z,1.80
2019-05-14T10:28:19.454Z,2.00
2019-05-14T10:30:56.450Z,2.20
2019-05-14T10:33:30.471Z,2.70
2019-05-14T10:36:03.291Z,1.83
2019-05-14T10:38:35.811Z,1.90
2019-05-14T10:41:09.047Z,2.43
2019-05-14T10:43:42.913Z,1.80
2019-05-14T10:46:15.671Z,2.13
2019-05-14T10:48:48.451Z,2.00
2019-05-14T10:51:21.091Z,2.17
2019-05-14T10:53:53.620Z,1.73
2019-05-14T10:56:29.484Z,1.90
2019-05-14T10:59:01.339Z,1.77
2019-05-14T11:01:33.803Z,1.50
2019-05-14T11:04:06.450Z,1.93
2019-05-14T11:06:41.832Z,1.60
2019-05-14T11:09:14.131Z,1.73
2019-05-14T11:11:46.754Z,1.47
2019-05-14T11:14:19.462Z,1.80
2019-05-14T11:16:51.730Z,1.90
2019-05-14T11:19:28.811Z,2.07
2019-05-14T11:22:01.331Z,1.70
2019-05-14T11:24:33.793Z,1.03
2019-05-14T11:27:06.392Z,1.57
2019-05-14T11:29:39.043Z,2.43
2019-05-14T11:32:11.455Z,1.93
2019-05-14T11:34:43.772Z,1.50
2019-05-14T11:37:18.552Z,1.40
2019-05-14T11:39:50.210Z,1.70
2019-05-14T11:42:23.972Z,1.60
2019-05-14T11:44:58.244Z,1.20
2019-05-14T11:47:30.692Z,1.83
2019-05-14T11:50:03.513Z,1.60
2019-05-14T11:52:35.892Z,1.87
2019-05-14T11:55:11.125Z,1.67
2019-05-14T11:57:43.460Z,1.80
2019-05-14T12:00:19.320Z,2.13
2019-05-14T12:02:51.953Z,1.37
2019-05-14T12:05:24.507Z,1.73
2019-05-14T12:07:58.330Z,1.33
2019-05-14T12:10:30.739Z,1.33
2019-05-14T12:13:04.371Z,3.93
2019-05-14T12:15:38.861Z,3.97
2019-05-14T12:18:11.190Z,2.17
2019-05-14T12:20:43.771Z,2.63
2019-05-14T12:23:19.217Z,1.57
2019-05-14T12:25:51.550Z,2.30
2019-05-14T12:28:24.011Z,4.73
2019-05-14T12:30:58.332Z,3.60
2019-05-14T12:33:31.779Z,2.97
2019-05-14T12:36:04.391Z,1.40
2019-05-14T12:38:38.269Z,2.37
2019-05-14T12:41:10.931Z,4.33
2019-05-14T12:43:43.887Z,3.00
2019-05-14T12:46:16.795Z,1.70
2019-05-14T12:48:50.692Z,2.27
2019-05-14T12:51:23.172Z,1.53
2019-05-14T12:53:58.106Z,1.63
2019-05-14T12:56:29.731Z,2.13
2019-05-14T12:59:02.122Z,5.00
2019-05-14T13:01:34.638Z,3.17
2019-05-14T13:04:08.487Z,4.53
2019-05-14T13:06:43.322Z,2.63
2019-05-14T13:09:19.140Z,2.83
2019-05-14T13:11:49.814Z,2.63
2019-05-14T13:14:22.190Z,2.23
2019-05-14T13:16:54.881Z,2.57
2019-05-14T13:19:28.463Z,2.03
2019-05-14T13:22:13.117Z,1.50
2019-05-14T13:24:35.171Z,2.97
2019-05-14T13:27:09.588Z,1.73
2019-05-14T13:29:42.132Z,1.50
2019-05-14T13:32:14.771Z,1.90
2019-05-14T13:34:56.101Z,4.43
2019-05-14T13:37:28.913Z,2.87
2019-05-14T13:40:01.371Z,2.13
2019-05-14T13:42:38.848Z,5.03
2019-05-14T13:45:10.810Z,3.23
2019-05-14T13:47:43.417Z,7.13
2019-05-14T13:50:19.432Z,4.90
2019-05-14T13:53:03.137Z,1.60
2019-05-14T13:55:28.043Z,1.67
2019-05-14T13:57:59.985Z,2.00
2019-05-14T14:00:32.753Z,4.23
2019-05-14T14:03:09.289Z,1.70
2019-05-14T14:05:40.851Z,3.30
2019-05-14T14:08:13.391Z,2.10
2019-05-14T14:10:53.059Z,2.23
2019-05-14T14:13:22.050Z,1.93
2019-05-14T14:15:55.610Z,1.37
2019-05-14T14:18:29.403Z,1.97
2019-05-14T14:21:02.380Z,1.70
2019-05-14T14:23:39.049Z,1.40
2019-05-14T14:26:11.990Z,1.83
2019-05-14T14:28:44.529Z,2.80
2019-05-14T14:31:18.949Z,1.60
2019-05-14T14:33:52.071Z,1.73
2019-05-14T14:36:24.721Z,3.07
2019-05-14T14:38:58.826Z,2.10
2019-05-14T14:41:31.034Z,1.57
2019-05-14T14:44:03.830Z,1.63
2019-05-14T14:46:36.530Z,2.03
2019-05-14T14:49:10.746Z,2.10
2019-05-14T14:51:45.151Z,1.70
2019-05-14T14:54:17.573Z,2.50
2019-05-14T14:56:50.253Z,1.60
2019-05-14T14:59:23.204Z,1.90
2019-05-14T15:01:59.399Z,1.70
2019-05-14T15:04:29.998Z,1.67
2019-05-14T15:07:02.864Z,1.47
2019-05-14T15:09:35.456Z,1.57
2019-05-14T15:12:09.081Z,1.17
2019-05-14T15:14:41.851Z,1.50
2019-05-14T15:17:14.648Z,1.70
2019-05-14T15:19:49.898Z,2.00
2019-05-14T15:22:21.911Z,3.43
2019-05-14T15:24:54.511Z,3.13
2019-05-14T15:27:28.261Z,1.53
2019-05-14T15:30:00.992Z,2.03
2019-05-14T15:32:33.593Z,1.60
2019-05-14T15:35:11.039Z,1.53
2019-05-14T15:37:44.037Z,1.77
2019-05-14T15:40:22.094Z,2.03
2019-05-14T15:42:51.777Z,2.33
2019-05-14T15:45:24.220Z,3.97
2019-05-14T15:48:02.927Z,3.97
2019-05-14T15:50:32.680Z,4.00
2019-05-14T15:53:10.841Z,1.43
2019-05-14T15:55:40.380Z,3.20
2019-05-14T15:58:13.119Z,2.10
2019-05-14T16:00:45.722Z,4.23
2019-05-14T16:03:19.466Z,3.30
2019-05-14T16:05:52.170Z,4.50
2019-05-14T16:08:25.052Z,12.53
2019-05-14T16:11:00.252Z,8.93
2019-05-14T16:13:32.735Z,15.37
2019-05-14T16:16:05.441Z,5.27
2019-05-14T16:18:38.634Z,7.27
2019-05-14T16:21:11.986Z,11.33
2019-05-14T16:23:44.692Z,10.70
2019-05-14T16:26:18.760Z,10.07
2019-05-14T16:28:52.067Z,13.83
2019-05-14T16:31:24.765Z,7.10
2019-05-14T16:33:58.861Z,6.87
2019-05-14T16:36:32.342Z,8.50
2019-05-14T16:39:06.581Z,44.23
2019-05-14T16:41:39.476Z,42.00
2019-05-14T16:44:12.241Z,8.73
2019-05-14T16:46:44.915Z,9.20
2019-05-14T16:49:18.554Z,11.93
2019-05-14T16:51:51.426Z,7.03
2019-05-14T16:54:24.800Z,20.30
2019-05-14T16:56:57.467Z,16.30
2019-05-14T16:59:30.250Z,10.47
2019-05-14T17:02:02.994Z,11.30
2019-05-14T17:04:35.981Z,23.47
2019-05-14T17:07:09.563Z,15.53
2019-05-14T17:09:42.672Z,12.73
2019-05-14T17:12:15.160Z,4.67
2019-05-14T17:14:48.446Z,5.47
2019-05-14T17:17:21.541Z,10.10
2019-05-14T17:19:54.480Z,9.17
2019-05-14T17:22:32.616Z,7.57
2019-05-14T17:25:01.717Z,22.33
2019-05-14T17:27:35.306Z,9.20
2019-05-14T17:30:10.206Z,11.50
2019-05-14T17:32:42.916Z,9.77
2019-05-14T17:35:16.101Z,5.80
2019-05-14T17:37:48.861Z,12.53
2019-05-14T17:40:22.089Z,8.20
2019-05-14T17:42:54.851Z,11.77
2019-05-14T17:45:28.479Z,4.37
2019-05-14T17:48:01.106Z,9.57
2019-05-14T17:50:33.801Z,10.47
2019-05-14T17:53:06.405Z,12.33
2019-05-14T17:55:47.145Z,7.70
2019-05-14T17:58:13.850Z,9.87
2019-05-14T18:00:46.921Z,4.30
2019-05-14T18:03:19.885Z,9.10
2019-05-14T18:05:52.686Z,3.03
2019-05-14T18:08:25.641Z,4.67
2019-05-14T18:11:01.095Z,6.40
2019-05-14T18:13:32.856Z,5.67
2019-05-14T18:16:08.787Z,3.20
2019-05-14T18:18:41.125Z,5.53
2019-05-14T18:21:14.065Z,6.67
2019-05-14T18:23:48.980Z,7.60
2019-05-14T18:26:21.623Z,10.10
2019-05-14T18:28:54.401Z,5.53
2019-05-14T18:31:27.300Z,5.93
2019-05-14T18:34:00.286Z,4.97
2019-05-14T18:36:33.235Z,5.97
2019-05-14T18:39:09.190Z,5.57
2019-05-14T18:41:41.562Z,8.67
2019-05-14T18:44:14.236Z,5.77
2019-05-14T18:46:48.661Z,6.70
2019-05-14T18:49:21.956Z,5.50
2019-05-14T18:51:54.657Z,8.10
2019-05-14T18:54:29.366Z,5.63
2019-05-14T18:57:02.901Z,6.30
2019-05-14T18:59:35.562Z,6.20
2019-05-14T19:02:08.688Z,4.33
2019-05-14T19:04:41.641Z,3.50
2019-05-14T19:07:15.682Z,3.63
2019-05-14T19:09:49.432Z,5.10
2019-05-14T19:12:22.667Z,10.80
2019-05-14T19:14:54.988Z,5.43
2019-05-14T19:17:28.423Z,5.97
2019-05-14T19:20:02.331Z,6.13
2019-05-14T19:22:35.351Z,8.70
2019-05-14T19:25:09.419Z,6.47
2019-05-14T19:27:42.085Z,9.40
2019-05-14T19:30:15.006Z,5.07
2019-05-14T19:32:48.486Z,2.90
2019-05-14T19:35:21.226Z,3.93
2019-05-14T19:37:53.891Z,4.67
2019-05-14T19:40:28.196Z,6.90
2019-05-14T19:43:01.186Z,3.87
2019-05-14T19:45:34.246Z,2.37
2019-05-14T19:48:08.151Z,3.00
2019-05-14T19:50:41.110Z,2.87
2019-05-14T19:53:14.020Z,5.83
2019-05-14T19:55:48.487Z,8.43
2019-05-14T19:58:21.781Z,2.40
2019-05-14T20:00:54.297Z,3.37
2019-05-14T20:03:29.142Z,3.27
2019-05-14T20:06:01.422Z,4.37
2019-05-14T20:08:34.126Z,4.73
2019-05-14T20:11:06.969Z,4.53
2019-05-14T20:13:39.635Z,3.60
2019-05-14T20:16:12.635Z,2.27
2019-05-14T20:18:45.180Z,2.30
2019-05-14T20:21:17.990Z,4.13
2019-05-14T20:23:50.658Z,4.43
2019-05-14T20:26:23.366Z,2.27
2019-05-14T20:28:56.217Z,2.70
2019-05-14T20:31:29.652Z,2.60
2019-05-14T20:34:02.815Z,2.37
2019-05-14T20:36:35.606Z,2.20
2019-05-14T20:39:08.769Z,2.37
2019-05-14T20:41:41.587Z,2.23
2019-05-14T20:44:14.751Z,2.30
2019-05-14T20:46:48.922Z,2.57
2019-05-14T20:49:21.825Z,2.43
2019-05-14T20:51:54.450Z,2.20
2019-05-14T20:54:28.956Z,2.07
2019-05-14T20:57:01.441Z,2.00
2019-05-14T20:59:34.190Z,3.47
2019-05-14T21:02:08.429Z,2.13
2019-05-14T21:04:41.255Z,3.10
2019-05-14T21:07:14.046Z,2.87
2019-05-14T21:09:49.123Z,2.00
2019-05-14T21:12:21.531Z,2.00
2019-05-14T21:14:54.430Z,1.80
2019-05-14T21:17:28.269Z,2.10
2019-05-14T21:20:01.179Z,2.10
2019-05-14T21:22:33.920Z,2.13
2019-05-14T21:25:11.387Z,2.57
2019-05-14T21:27:48.298Z,1.80
2019-05-14T21:30:18.928Z,3.37
2019-05-14T21:32:51.318Z,1.93
2019-05-14T21:35:24.580Z,2.20
2019-05-14T21:37:59.371Z,2.10
2019-05-14T21:40:32.274Z,2.17
2019-05-14T21:43:05.100Z,2.37
2019-05-14T21:45:38.299Z,1.83
2019-05-14T21:48:11.300Z,2.37
2019-05-14T21:50:44.980Z,2.70
2019-05-14T21:53:19.089Z,1.83
2019-05-14T21:55:52.025Z,2.10
2019-05-14T21:58:24.736Z,2.17
2019-05-14T22:00:59.272Z,2.47
2019-05-14T22:03:32.810Z,1.70
2019-05-14T22:06:05.866Z,1.67
2019-05-14T22:08:39.346Z,1.83
2019-05-14T22:11:12.180Z,2.60
2019-05-14T22:13:44.740Z,2.47
2019-05-14T22:16:18.971Z,2.23
2019-05-14T22:18:51.627Z,1.67
2019-05-14T22:21:24.160Z,1.93
2019-05-14T22:23:58.742Z,2.10
2019-05-14T22:26:30.795Z,2.13
2019-05-14T22:29:03.625Z,1.73
2019-05-14T22:31:38.510Z,2.10
2019-05-14T22:34:10.687Z,1.90
2019-05-14T22:36:43.520Z,1.70
2019-05-14T22:39:19.811Z,1.90
2019-05-14T22:41:50.661Z,1.80
2019-05-14T22:44:23.165Z,2.40
2019-05-14T22:46:58.629Z,1.83
2019-05-14T22:49:30.650Z,1.90
2019-05-14T22:52:03.686Z,2.40
2019-05-14T22:54:38.478Z,2.20
2019-05-14T22:57:10.810Z,2.20
2019-05-14T22:59:43.320Z,1.80
2019-05-14T23:02:15.995Z,2.27
2019-05-14T23:04:49.290Z,1.90
2019-05-14T23:07:22.281Z,2.07
2019-05-14T23:09:54.945Z,1.93
2019-05-14T23:12:28.726Z,2.13
2019-05-14T23:15:01.381Z,2.00
2019-05-14T23:17:34.225Z,1.83
2019-05-14T23:20:09.165Z,1.77
2019-05-14T23:22:42.351Z,3.20
2019-05-14T23:25:15.141Z,2.00
2019-05-14T23:27:48.352Z,2.13
2019-05-14T23:30:33.695Z,2.70
2019-05-14T23:33:06.290Z,2.17
2019-05-14T23:35:39.356Z,2.23
2019-05-14T23:38:12.236Z,2.60
2019-05-14T23:40:45.005Z,1.90
2019-05-14T23:43:18.558Z,2.60
2019-05-14T23:45:51.330Z,2.03
2019-05-14T23:48:24.076Z,2.87
2019-05-14T23:50:58.439Z,2.40
2019-05-14T23:53:31.231Z,2.10
2019-05-14T23:56:03.771Z,2.20
2019-05-14T23:58:36.485Z,1.97
